sensor_id;sensor_type;location;lat;lon;timestamp;pressure;altitude;pressure_sealevel;temperature;humidity
64675;BME280;51090;51.512;11.332;2023-08-06T00:00:48;98717.78;;;18.01;100.00
64675;BME280;51090;51.512;11.332;2023-08-06T00:03:14;98724.25;;;18.05;100.00
64675;BME280;51090;51.512;11.332;2023-08-06T00:05:43;98731.31;;;18.11;100.00
64675;BME280;51090;51.512;11.332;2023-08-06T00:08:10;98701.28;;;18.14;100.00
64675;BME280;51090;51.512;11.332;2023-08-06T00:10:36;98701.53;;;18.13;100.00
64675;BME280;51090;51.512;11.332;2023-08-06T00:13:02;98703.41;;;18.12;100.00
64675;BME280;51090;51.512;11.332;2023-08-06T00:15:28;98698.59;;;18.14;100.00
64675;BME280;51090;51.512;11.332;2023-08-06T00:17:54;98684.69;;;18.17;100.00
64675;BME280;51090;51.512;11.332;2023-08-06T00:20:20;98684.38;;;18.14;100.00
64675;BME280;51090;51.512;11.332;2023-08-06T00:22:46;98665.78;;;18.07;100.00
64675;BME280;51090;51.512;11.332;2023-08-06T00:25:12;98663.56;;;17.99;100.00
64675;BME280;51090;51.512;11.332;2023-08-06T00:27:38;98656.50;;;17.93;100.00
64675;BME280;51090;51.512;11.332;2023-08-06T00:30:05;98654.53;;;17.83;100.00
64675;BME280;51090;51.512;11.332;2023-08-06T00:32:31;98653.38;;;17.79;100.00
64675;BME280;51090;51.512;11.332;2023-08-06T00:34:57;98660.84;;;17.77;100.00
64675;BME280;51090;51.512;11.332;2023-08-06T00:37:23;98656.31;;;17.77;100.00
64675;BME280;51090;51.512;11.332;2023-08-06T00:39:49;98650.13;;;17.77;100.00
64675;BME280;51090;51.512;11.332;2023-08-06T00:42:15;98637.22;;;17.74;100.00
64675;BME280;51090;51.512;11.332;2023-08-06T00:44:46;98639.69;;;17.75;100.00
64675;BME280;51090;51.512;11.332;2023-08-06T00:47:12;98629.25;;;17.79;100.00
64675;BME280;51090;51.512;11.332;2023-08-06T00:49:39;98623.97;;;17.84;100.00
64675;BME280;51090;51.512;11.332;2023-08-06T00:52:06;98618.03;;;17.82;100.00
64675;BME280;51090;51.512;11.332;2023-08-06T00:54:35;98611.56;;;17.78;100.00
64675;BME280;51090;51.512;11.332;2023-08-06T00:57:02;98605.34;;;17.77;100.00
64675;BME280;51090;51.512;11.332;2023-08-06T00:59:30;98604.31;;;17.78;100.00
64675;BME280;51090;51.512;11.332;2023-08-06T01:01:56;98604.31;;;17.78;100.00
64675;BME280;51090;51.512;11.332;2023-08-06T01:04:23;98608.94;;;17.83;100.00
64675;BME280;51090;51.512;11.332;2023-08-06T01:15:11;98596.91;;;17.86;100.00
64675;BME280;51090;51.512;11.332;2023-08-06T01:17:41;98598.53;;;17.87;100.00
64675;BME280;51090;51.512;11.332;2023-08-06T01:20:08;98602.28;;;17.86;100.00
64675;BME280;51090;51.512;11.332;2023-08-06T01:22:34;98591.53;;;17.86;100.00
64675;BME280;51090;51.512;11.332;2023-08-06T01:25:00;98580.25;;;17.83;100.00
64675;BME280;51090;51.512;11.332;2023-08-06T01:27:28;98580.81;;;17.86;100.00
64675;BME280;51090;51.512;11.332;2023-08-06T01:30:13;98571.69;;;17.87;100.00
64675;BME280;51090;51.512;11.332;2023-08-06T01:32:46;98555.47;;;17.76;100.00
64675;BME280;51090;51.512;11.332;2023-08-06T01:35:16;98551.44;;;17.74;100.00
64675;BME280;51090;51.512;11.332;2023-08-06T01:37:43;98545.78;;;17.70;100.00
64675;BME280;51090;51.512;11.332;2023-08-06T01:40:13;98549.78;;;17.68;100.00
64675;BME280;51090;51.512;11.332;2023-08-06T01:42:40;98535.75;;;17.60;100.00
64675;BME280;51090;51.512;11.332;2023-08-06T01:45:09;98532.28;;;17.60;100.00
64675;BME280;51090;51.512;11.332;2023-08-06T01:47:36;98533.31;;;17.59;100.00
64675;BME280;51090;51.512;11.332;2023-08-06T01:50:02;98526.06;;;17.59;100.00
64675;BME280;51090;51.512;11.332;2023-08-06T01:52:28;98526.59;;;17.56;100.00
64675;BME280;51090;51.512;11.332;2023-08-06T01:54:55;98520.94;;;17.53;100.00
64675;BME280;51090;51.512;11.332;2023-08-06T01:57:21;98522.53;;;17.54;100.00
64675;BME280;51090;51.512;11.332;2023-08-06T01:59:47;98519.84;;;17.54;100.00
64675;BME280;51090;51.512;11.332;2023-08-06T02:02:13;98512.13;;;17.57;100.00
64675;BME280;51090;51.512;11.332;2023-08-06T02:04:39;98509.75;;;17.61;100.00
64675;BME280;51090;51.512;11.332;2023-08-06T02:07:05;98510.88;;;17.65;100.00
64675;BME280;51090;51.512;11.332;2023-08-06T02:09:32;98510.88;;;17.65;100.00
64675;BME280;51090;51.512;11.332;2023-08-06T02:11:58;98507.91;;;17.67;100.00
64675;BME280;51090;51.512;11.332;2023-08-06T02:14:24;98510.88;;;17.65;100.00
64675;BME280;51090;51.512;11.332;2023-08-06T02:16:50;98507.63;;;17.63;100.00
64675;BME280;51090;51.512;11.332;2023-08-06T02:19:16;98509.22;;;17.64;100.00
64675;BME280;51090;51.512;11.332;2023-08-06T02:21:43;98515.41;;;17.64;100.00
64675;BME280;51090;51.512;11.332;2023-08-06T02:24:09;98510.31;;;17.63;100.00
64675;BME280;51090;51.512;11.332;2023-08-06T02:26:35;98509.50;;;17.62;100.00
64675;BME280;51090;51.512;11.332;2023-08-06T02:29:01;98506.81;;;17.62;100.00
64675;BME280;51090;51.512;11.332;2023-08-06T02:31:27;98502.50;;;17.61;100.00
64675;BME280;51090;51.512;11.332;2023-08-06T02:33:53;98499.03;;;17.61;100.00
64675;BME280;51090;51.512;11.332;2023-08-06T02:36:19;98495.53;;;17.60;100.00
64675;BME280;51090;51.512;11.332;2023-08-06T02:38:46;98503.31;;;17.62;100.00
64675;BME280;51090;51.512;11.332;2023-08-06T02:41:12;98506.00;;;17.62;100.00
64675;BME280;51090;51.512;11.332;2023-08-06T02:43:38;98503.31;;;17.62;100.00
64675;BME280;51090;51.512;11.332;2023-08-06T02:46:04;98499.59;;;17.63;100.00
64675;BME280;51090;51.512;11.332;2023-08-06T02:48:30;98499.31;;;17.64;100.00
64675;BME280;51090;51.512;11.332;2023-08-06T02:51:00;98508.47;;;17.69;100.00
64675;BME280;51090;51.512;11.332;2023-08-06T02:53:26;98504.47;;;17.71;100.00
64675;BME280;51090;51.512;11.332;2023-08-06T02:55:52;98498.38;;;17.76;100.00
64675;BME280;51090;51.512;11.332;2023-08-06T02:58:19;98499.25;;;17.81;100.00
64675;BME280;51090;51.512;11.332;2023-08-06T03:01:03;98489.81;;;17.79;100.00
64675;BME280;51090;51.512;11.332;2023-08-06T03:03:31;98479.78;;;17.69;100.00
64675;BME280;51090;51.512;11.332;2023-08-06T03:05:57;98478.44;;;17.67;100.00
64675;BME280;51090;51.512;11.332;2023-08-06T03:08:23;98484.34;;;17.69;100.00
64675;BME280;51090;51.512;11.332;2023-08-06T03:10:50;98498.03;;;17.72;100.00
64675;BME280;51090;51.512;11.332;2023-08-06T03:13:17;98503.44;;;17.77;100.00
64675;BME280;51090;51.512;11.332;2023-08-06T03:15:51;98495.50;;;17.82;100.00
64675;BME280;51090;51.512;11.332;2023-08-06T03:18:18;98498.72;;;17.84;100.00
64675;BME280;51090;51.512;11.332;2023-08-06T03:20:45;98486.44;;;17.89;100.00
64675;BME280;51090;51.512;11.332;2023-08-06T03:23:11;98487.00;;;17.91;100.00
64675;BME280;51090;51.512;11.332;2023-08-06T03:25:37;98484.84;;;17.93;100.00
64675;BME280;51090;51.512;11.332;2023-08-06T03:28:03;98481.63;;;17.91;100.00
64675;BME280;51090;51.512;11.332;2023-08-06T03:30:29;98485.13;;;17.91;100.00
64675;BME280;51090;51.512;11.332;2023-08-06T03:32:55;98479.44;;;17.88;100.00
64675;BME280;51090;51.512;11.332;2023-08-06T03:35:22;98472.22;;;17.88;100.00
64675;BME280;51090;51.512;11.332;2023-08-06T03:37:48;98481.88;;;17.89;100.00
64675;BME280;51090;51.512;11.332;2023-08-06T03:40:15;98485.13;;;17.91;100.00
64675;BME280;51090;51.512;11.332;2023-08-06T03:42:41;98484.03;;;17.92;100.00
64675;BME280;51090;51.512;11.332;2023-08-06T03:45:08;98484.59;;;17.94;100.00
64675;BME280;51090;51.512;11.332;2023-08-06T03:47:34;98481.63;;;17.91;100.00
64675;BME280;51090;51.512;11.332;2023-08-06T03:50:00;98471.72;;;17.91;100.00
64675;BME280;51090;51.512;11.332;2023-08-06T03:52:25;98477.88;;;17.92;100.00
64675;BME280;51090;51.512;11.332;2023-08-06T03:54:51;98473.31;;;17.92;100.00
64675;BME280;51090;51.512;11.332;2023-08-06T03:57:17;98472.28;;;17.93;100.00
64675;BME280;51090;51.512;11.332;2023-08-06T03:59:43;98465.25;;;17.92;100.00
64675;BME280;51090;51.512;11.332;2023-08-06T04:02:09;98464.22;;;17.93;100.00
64675;BME280;51090;51.512;11.332;2023-08-06T04:04:35;98466.91;;;17.93;100.00
64675;BME280;51090;51.512;11.332;2023-08-06T04:07:00;98463.66;;;17.91;100.00
64675;BME280;51090;51.512;11.332;2023-08-06T04:09:28;98459.91;;;17.92;100.00
64675;BME280;51090;51.512;11.332;2023-08-06T04:11:54;98457.22;;;17.92;100.00
64675;BME280;51090;51.512;11.332;2023-08-06T04:14:20;98469.03;;;17.91;100.00
64675;BME280;51090;51.512;11.332;2023-08-06T04:16:45;98458.03;;;17.93;100.00
64675;BME280;51090;51.512;11.332;2023-08-06T04:19:11;98466.38;;;17.96;100.00
64675;BME280;51090;51.512;11.332;2023-08-06T04:21:37;98459.91;;;17.92;100.00
64675;BME280;51090;51.512;11.332;2023-08-06T04:24:03;98473.63;;;17.96;100.00
64675;BME280;51090;51.512;11.332;2023-08-06T04:26:29;98465.81;;;17.94;100.00
64675;BME280;51090;51.512;11.332;2023-08-06T04:28:54;98468.25;;;17.96;100.00
64675;BME280;51090;51.512;11.332;2023-08-06T04:31:21;98462.34;;;17.94;100.00
64675;BME280;51090;51.512;11.332;2023-08-06T04:33:48;98463.38;;;17.93;100.00
64675;BME280;51090;51.512;11.332;2023-08-06T04:36:14;98458.84;;;17.93;100.00
64675;BME280;51090;51.512;11.332;2023-08-06T04:38:40;98452.94;;;17.91;100.00
64675;BME280;51090;51.512;11.332;2023-08-06T04:41:10;98450.50;;;17.90;100.00
64675;BME280;51090;51.512;11.332;2023-08-06T04:43:36;98441.88;;;17.88;100.00
64675;BME280;51090;51.512;11.332;2023-08-06T04:46:02;98444.56;;;17.88;100.00
64675;BME280;51090;51.512;11.332;2023-08-06T04:48:28;98430.81;;;17.79;100.00
64675;BME280;51090;51.512;11.332;2023-08-06T04:50:54;98432.44;;;17.80;100.00
64675;BME280;51090;51.512;11.332;2023-08-06T04:53:20;98443.41;;;17.78;100.00
64675;BME280;51090;51.512;11.332;2023-08-06T04:55:46;98447.22;;;17.82;100.00
64675;BME280;51090;51.512;11.332;2023-08-06T04:58:13;98447.25;;;17.88;100.00
64675;BME280;51090;51.512;11.332;2023-08-06T05:00:39;98448.41;;;17.97;100.00
64675;BME280;51090;51.512;11.332;2023-08-06T05:03:06;98453.28;;;18.05;100.00
64675;BME280;51090;51.512;11.332;2023-08-06T05:05:32;98451.72;;;18.09;100.00
64675;BME280;51090;51.512;11.332;2023-08-06T05:07:58;98455.50;;;18.13;100.00
64675;BME280;51090;51.512;11.332;2023-08-06T05:10:28;98449.34;;;18.18;100.00
64675;BME280;51090;51.512;11.332;2023-08-06T05:12:54;98449.66;;;18.21;100.00
64675;BME280;51090;51.512;11.332;2023-08-06T05:15:20;98446.19;;;18.26;100.00
64675;BME280;51090;51.512;11.332;2023-08-06T05:17:46;98450.78;;;18.31;100.00
64675;BME280;51090;51.512;11.332;2023-08-06T05:20:13;98444.09;;;18.33;100.00
64675;BME280;51090;51.512;11.332;2023-08-06T05:22:38;98455.09;;;18.37;100.00
64675;BME280;51090;51.512;11.332;2023-08-06T05:25:05;98449.75;;;18.42;100.00
64675;BME280;51090;51.512;11.332;2023-08-06T05:27:32;98453.56;;;18.46;100.00
64675;BME280;51090;51.512;11.332;2023-08-06T05:29:57;98449.78;;;18.47;100.00
64675;BME280;51090;51.512;11.332;2023-08-06T05:32:23;98446.09;;;18.53;100.00
64675;BME280;51090;51.512;11.332;2023-08-06T05:34:49;98446.13;;;18.63;100.00
64675;BME280;51090;51.512;11.332;2023-08-06T05:37:15;98436.22;;;18.69;100.00
64675;BME280;51090;51.512;11.332;2023-08-06T05:39:41;98438.19;;;18.79;100.00
64675;BME280;51090;51.512;11.332;2023-08-06T05:42:07;98438.75;;;18.86;100.00
64675;BME280;51090;51.512;11.332;2023-08-06T05:44:33;98438.75;;;18.91;100.00
64675;BME280;51090;51.512;11.332;2023-08-06T05:46:58;98429.63;;;18.97;100.00
64675;BME280;51090;51.512;11.332;2023-08-06T05:49:24;98427.78;;;19.03;100.00
64675;BME280;51090;51.512;11.332;2023-08-06T05:51:50;98428.59;;;19.08;99.86
64675;BME280;51090;51.512;11.332;2023-08-06T05:54:19;98431.28;;;19.13;99.61
64675;BME280;51090;51.512;11.332;2023-08-06T05:56:44;98427.56;;;19.20;99.26
64675;BME280;51090;51.512;11.332;2023-08-06T05:59:10;98425.13;;;19.28;99.24
64675;BME280;51090;51.512;11.332;2023-08-06T06:01:36;98425.69;;;19.35;99.21
64675;BME280;51090;51.512;11.332;2023-08-06T06:04:02;98419.78;;;19.49;98.90
64675;BME280;51090;51.512;11.332;2023-08-06T06:06:27;98421.44;;;19.60;98.59
64675;BME280;51090;51.512;11.332;2023-08-06T06:08:53;98427.34;;;19.72;97.76
64675;BME280;51090;51.512;11.332;2023-08-06T06:11:19;98430.84;;;19.83;96.99
64675;BME280;51090;51.512;11.332;2023-08-06T06:13:50;98413.09;;;19.87;95.84
64675;BME280;51090;51.512;11.332;2023-08-06T06:16:16;98411.75;;;20.00;95.08
64675;BME280;51090;51.512;11.332;2023-08-06T06:18:42;98404.22;;;19.97;93.86
64675;BME280;51090;51.512;11.332;2023-08-06T06:21:07;98409.84;;;20.06;93.24
64675;BME280;51090;51.512;11.332;2023-08-06T06:23:33;98413.06;;;20.08;92.54
64675;BME280;51090;51.512;11.332;2023-08-06T06:25:59;98416.28;;;20.15;92.44
64675;BME280;51090;51.512;11.332;2023-08-06T06:28:25;98423.81;;;20.23;92.26
64675;BME280;51090;51.512;11.332;2023-08-06T06:30:51;98404.97;;;20.28;92.22
64675;BME280;51090;51.512;11.332;2023-08-06T06:33:17;98395.53;;;20.31;91.63
64675;BME280;51090;51.512;11.332;2023-08-06T06:35:43;98409.22;;;20.44;90.38
64675;BME280;51090;51.512;11.332;2023-08-06T06:38:08;98410.28;;;20.49;90.69
64675;BME280;51090;51.512;11.332;2023-08-06T06:40:34;98407.06;;;20.57;90.69
64675;BME280;51090;51.512;11.332;2023-08-06T06:43:00;98401.91;;;20.65;90.61
64675;BME280;51090;51.512;11.332;2023-08-06T06:45:26;98407.25;;;20.76;90.26
64675;BME280;51090;51.512;11.332;2023-08-06T06:47:52;98395.13;;;20.78;90.29
64675;BME280;51090;51.512;11.332;2023-08-06T06:50:17;98413.38;;;20.92;90.17
64675;BME280;51090;51.512;11.332;2023-08-06T06:52:43;98407.09;;;21.01;89.77
64675;BME280;51090;51.512;11.332;2023-08-06T06:55:09;98418.66;;;21.12;89.13
64675;BME280;51090;51.512;11.332;2023-08-06T06:57:35;98420.19;;;21.23;89.05
64675;BME280;51090;51.512;11.332;2023-08-06T07:00:00;98412.28;;;21.37;88.59
64675;BME280;51090;51.512;11.332;2023-08-06T07:02:26;98417.91;;;21.46;87.66
64675;BME280;51090;51.512;11.332;2023-08-06T07:04:52;98415.19;;;21.51;87.26
64675;BME280;51090;51.512;11.332;2023-08-06T07:07:17;98414.59;;;21.59;86.81
64675;BME280;51090;51.512;11.332;2023-08-06T07:09:44;98415.06;;;21.66;85.78
64675;BME280;51090;51.512;11.332;2023-08-06T07:12:10;98415.25;;;21.75;85.46
64675;BME280;51090;51.512;11.332;2023-08-06T07:14:36;98415.75;;;21.82;84.41
64675;BME280;51090;51.512;11.332;2023-08-06T07:17:01;98415.97;;;21.86;84.43
64675;BME280;51090;51.512;11.332;2023-08-06T07:19:27;98417.56;;;21.92;84.31
64675;BME280;51090;51.512;11.332;2023-08-06T07:21:53;98418.56;;;21.96;83.79
64675;BME280;51090;51.512;11.332;2023-08-06T07:24:19;98418.84;;;22.00;83.47
64675;BME280;51090;51.512;11.332;2023-08-06T07:26:45;98422.22;;;22.10;83.03
64675;BME280;51090;51.512;11.332;2023-08-06T07:29:11;98410.84;;;22.13;83.00
64675;BME280;51090;51.512;11.332;2023-08-06T07:31:36;98411.88;;;22.23;82.84
64675;BME280;51090;51.512;11.332;2023-08-06T07:34:02;98424.44;;;22.32;81.82
64675;BME280;51090;51.512;11.332;2023-08-06T07:36:28;98424.91;;;22.39;81.95
64675;BME280;51090;51.512;11.332;2023-08-06T07:38:54;98418.59;;;22.49;81.68
64675;BME280;51090;51.512;11.332;2023-08-06T07:41:25;98416.06;;;22.58;80.20
64675;BME280;51090;51.512;11.332;2023-08-06T07:43:50;98418.72;;;22.63;80.64
64675;BME280;51090;51.512;11.332;2023-08-06T07:46:16;98429.19;;;22.70;79.70
64675;BME280;51090;51.512;11.332;2023-08-06T07:48:42;98423.94;;;22.78;80.33
64675;BME280;51090;51.512;11.332;2023-08-06T07:51:08;98424.31;;;22.91;80.08
64675;BME280;51090;51.512;11.332;2023-08-06T07:53:33;98419.53;;;23.07;79.78
64675;BME280;51090;51.512;11.332;2023-08-06T07:56:24;98423.78;;;23.13;74.88
64675;BME280;51090;51.512;11.332;2023-08-06T07:58:50;98414.66;;;23.09;77.26
64675;BME280;51090;51.512;11.332;2023-08-06T08:01:16;98416.19;;;23.15;77.31
64675;BME280;51090;51.512;11.332;2023-08-06T08:03:41;98414.50;;;23.19;77.08
64675;BME280;51090;51.512;11.332;2023-08-06T08:06:07;98414.16;;;23.25;77.12
64675;BME280;51090;51.512;11.332;2023-08-06T08:08:33;98405.38;;;23.34;77.23
64675;BME280;51090;51.512;11.332;2023-08-06T08:11:00;98409.59;;;23.40;76.36
64675;BME280;51090;51.512;11.332;2023-08-06T08:13:26;98404.09;;;23.45;76.06
64675;BME280;51090;51.512;11.332;2023-08-06T08:15:59;98406.38;;;23.57;74.55
64675;BME280;51090;51.512;11.332;2023-08-06T08:18:25;98409.84;;;23.76;75.64
64675;BME280;51090;51.512;11.332;2023-08-06T08:20:51;98408.59;;;23.87;74.60
64675;BME280;51090;51.512;11.332;2023-08-06T08:23:17;98412.13;;;24.02;74.22
64675;BME280;51090;51.512;11.332;2023-08-06T08:25:42;98408.25;;;24.08;73.37
64675;BME280;51090;51.512;11.332;2023-08-06T08:28:08;98414.47;;;24.22;73.61
64675;BME280;51090;51.512;11.332;2023-08-06T08:30:34;98414.78;;;24.34;72.11
64675;BME280;51090;51.512;11.332;2023-08-06T08:33:00;98407.84;;;24.42;71.68
64675;BME280;51090;51.512;11.332;2023-08-06T08:35:25;98404.97;;;24.52;70.61
64675;BME280;51090;51.512;11.332;2023-08-06T08:37:52;98401.25;;;24.62;69.98
64675;BME280;51090;51.512;11.332;2023-08-06T08:40:17;98392.84;;;24.64;69.33
64675;BME280;51090;51.512;11.332;2023-08-06T08:42:43;98399.25;;;24.68;69.23
64675;BME280;51090;51.512;11.332;2023-08-06T08:45:14;98397.03;;;24.70;67.71
64675;BME280;51090;51.512;11.332;2023-08-06T08:47:41;98397.44;;;24.77;69.09
64675;BME280;51090;51.512;11.332;2023-08-06T08:50:10;98396.72;;;24.85;68.63
64675;BME280;51090;51.512;11.332;2023-08-06T08:52:38;98389.59;;;24.89;67.95
64675;BME280;51090;51.512;11.332;2023-08-06T08:55:07;98385.94;;;24.94;67.63
64675;BME280;51090;51.512;11.332;2023-08-06T08:57:33;98389.06;;;25.01;67.53
64675;BME280;51090;51.512;11.332;2023-08-06T08:59:59;98385.09;;;25.07;67.67
64675;BME280;51090;51.512;11.332;2023-08-06T09:02:28;98387.69;;;25.12;65.29
64675;BME280;51090;51.512;11.332;2023-08-06T09:04:59;98370.34;;;25.13;66.54
64675;BME280;51090;51.512;11.332;2023-08-06T09:07:32;98369.22;;;25.14;65.32
64675;BME280;51090;51.512;11.332;2023-08-06T09:10:02;98368.22;;;25.24;66.08
64675;BME280;51090;51.512;11.332;2023-08-06T09:12:31;98376.91;;;25.35;66.43
64675;BME280;51090;51.512;11.332;2023-08-06T09:14:57;98371.97;;;25.37;65.33
64675;BME280;51090;51.512;11.332;2023-08-06T09:17:24;98371.44;;;25.49;65.75
64675;BME280;51090;51.512;11.332;2023-08-06T09:19:49;98369.44;;;25.63;65.41
64675;BME280;51090;51.512;11.332;2023-08-06T09:22:15;98371.28;;;25.76;65.03
64675;BME280;51090;51.512;11.332;2023-08-06T09:24:42;98378.75;;;25.93;64.27
64675;BME280;51090;51.512;11.332;2023-08-06T09:27:12;98372.06;;;25.99;63.09
64675;BME280;51090;51.512;11.332;2023-08-06T09:29:46;98370.69;;;26.11;62.40
64675;BME280;51090;51.512;11.332;2023-08-06T09:32:15;98372.94;;;26.17;62.75
64675;BME280;51090;51.512;11.332;2023-08-06T09:34:42;98367.22;;;26.27;62.40
64675;BME280;51090;51.512;11.332;2023-08-06T09:37:09;98376.88;;;26.34;61.62
64675;BME280;51090;51.512;11.332;2023-08-06T09:39:39;98377.81;;;26.38;61.72
64675;BME280;51090;51.512;11.332;2023-08-06T09:42:08;98375.44;;;26.36;60.86
64675;BME280;51090;51.512;11.332;2023-08-06T09:44:34;98367.88;;;26.24;60.45
64675;BME280;51090;51.512;11.332;2023-08-06T09:47:03;98367.84;;;26.16;59.88
64675;BME280;51090;51.512;11.332;2023-08-06T09:49:41;98366.56;;;26.13;58.67
64675;BME280;51090;51.512;11.332;2023-08-06T09:52:13;98356.31;;;26.10;60.56
64675;BME280;51090;51.512;11.332;2023-08-06T09:54:39;98354.88;;;26.13;59.92
64675;BME280;51090;51.512;11.332;2023-08-06T09:57:05;98351.47;;;25.98;60.15
64675;BME280;51090;51.512;11.332;2023-08-06T09:59:32;98349.38;;;25.95;60.33
64675;BME280;51090;51.512;11.332;2023-08-06T10:01:58;98357.06;;;26.02;60.70
64675;BME280;51090;51.512;11.332;2023-08-06T10:04:25;98346.38;;;26.05;60.48
64675;BME280;51090;51.512;11.332;2023-08-06T10:06:52;98346.53;;;26.00;59.79
64675;BME280;51090;51.512;11.332;2023-08-06T10:09:19;98333.44;;;26.02;60.79
64675;BME280;51090;51.512;11.332;2023-08-06T10:11:51;98336.00;;;26.08;59.35
64675;BME280;51090;51.512;11.332;2023-08-06T10:14:32;98329.81;;;26.16;59.08
64675;BME280;51090;51.512;11.332;2023-08-06T10:16:58;98337.38;;;26.36;60.46
64675;BME280;51090;51.512;11.332;2023-08-06T10:19:26;98341.28;;;26.53;60.41
64675;BME280;51090;51.512;11.332;2023-08-06T10:22:15;98345.66;;;26.88;56.93
64675;BME280;51090;51.512;11.332;2023-08-06T10:25:00;98344.22;;;27.17;56.49
64675;BME280;51090;51.512;11.332;2023-08-06T10:27:53;98346.00;;;27.30;56.58
64675;BME280;51090;51.512;11.332;2023-08-06T10:30:30;98331.06;;;27.54;54.63
64675;BME280;51090;51.512;11.332;2023-08-06T10:33:00;98334.88;;;27.70;55.15
64675;BME280;51090;51.512;11.332;2023-08-06T10:35:48;98334.38;;;27.86;52.68
64675;BME280;51090;51.512;11.332;2023-08-06T10:38:21;98325.88;;;27.78;54.22
64675;BME280;51090;51.512;11.332;2023-08-06T10:43:33;98319.25;;;27.97;51.75
64675;BME280;51090;51.512;11.332;2023-08-06T10:46:02;98318.72;;;28.12;53.98
64675;BME280;51090;51.512;11.332;2023-08-06T10:51:02;98315.94;;;28.59;53.21
64675;BME280;51090;51.512;11.332;2023-08-06T10:53:27;98308.66;;;28.63;52.45
64675;BME280;51090;51.512;11.332;2023-08-06T10:55:53;98308.75;;;28.76;52.14
64675;BME280;51090;51.512;11.332;2023-08-06T10:58:19;98305.28;;;28.66;51.53
64675;BME280;51090;51.512;11.332;2023-08-06T11:00:46;98301.81;;;28.57;50.58
64675;BME280;51090;51.512;11.332;2023-08-06T11:03:12;98300.75;;;28.50;50.86
64675;BME280;51090;51.512;11.332;2023-08-06T11:05:39;98294.50;;;28.49;50.86
64675;BME280;51090;51.512;11.332;2023-08-06T11:08:05;98282.72;;;28.57;50.71
64675;BME280;51090;51.512;11.332;2023-08-06T11:10:33;98277.75;;;28.30;49.24
64675;BME280;51090;51.512;11.332;2023-08-06T11:13:03;98268.03;;;27.82;49.11
64675;BME280;51090;51.512;11.332;2023-08-06T11:15:30;98269.91;;;27.51;51.04
64675;BME280;51090;51.512;11.332;2023-08-06T11:17:56;98262.56;;;27.34;51.46
64675;BME280;51090;51.512;11.332;2023-08-06T11:20:22;98241.16;;;26.98;50.96
64675;BME280;51090;51.512;11.332;2023-08-06T11:22:50;98250.78;;;26.61;49.89
64675;BME280;51090;51.512;11.332;2023-08-06T11:25:16;98247.97;;;26.17;50.61
64675;BME280;51090;51.512;11.332;2023-08-06T11:27:41;98245.75;;;25.79;51.32
64675;BME280;51090;51.512;11.332;2023-08-06T11:30:10;98249.56;;;25.70;51.88
64675;BME280;51090;51.512;11.332;2023-08-06T11:32:46;98254.06;;;25.74;49.75
64675;BME280;51090;51.512;11.332;2023-08-06T11:35:13;98252.56;;;25.99;52.42
64675;BME280;51090;51.512;11.332;2023-08-06T11:37:46;98254.25;;;26.44;49.16
64675;BME280;51090;51.512;11.332;2023-08-06T11:40:16;98258.47;;;26.67;50.42
64675;BME280;51090;51.512;11.332;2023-08-06T11:42:42;98252.38;;;26.79;51.75
64675;BME280;51090;51.512;11.332;2023-08-06T11:45:09;98256.84;;;27.01;52.47
64675;BME280;51090;51.512;11.332;2023-08-06T11:47:39;98261.16;;;27.20;51.58
64675;BME280;51090;51.512;11.332;2023-08-06T11:50:08;98260.81;;;27.39;52.21
64675;BME280;51090;51.512;11.332;2023-08-06T11:52:33;98258.97;;;27.60;51.95
64675;BME280;51090;51.512;11.332;2023-08-06T11:55:04;98265.34;;;27.73;48.56
64675;BME280;51090;51.512;11.332;2023-08-06T11:57:39;98267.41;;;27.76;50.79
64675;BME280;51090;51.512;11.332;2023-08-06T12:00:11;98256.09;;;27.56;49.74
64675;BME280;51090;51.512;11.332;2023-08-06T12:02:39;98245.97;;;27.19;47.92
64675;BME280;51090;51.512;11.332;2023-08-06T12:05:13;98247.72;;;26.88;48.49
64675;BME280;51090;51.512;11.332;2023-08-06T12:07:45;98230.59;;;26.44;49.46
64675;BME280;51090;51.512;11.332;2023-08-06T12:10:13;98221.47;;;26.32;50.73
64675;BME280;51090;51.512;11.332;2023-08-06T12:12:39;98238.06;;;26.13;51.01
64675;BME280;51090;51.512;11.332;2023-08-06T12:15:07;98217.66;;;25.84;50.30
64675;BME280;51090;51.512;11.332;2023-08-06T12:17:33;98228.63;;;25.70;51.68
64675;BME280;51090;51.512;11.332;2023-08-06T12:19:59;98226.84;;;25.66;52.16
64675;BME280;51090;51.512;11.332;2023-08-06T12:22:25;98232.28;;;25.66;51.90
64675;BME280;51090;51.512;11.332;2023-08-06T12:24:51;98223.09;;;25.44;51.62
64675;BME280;51090;51.512;11.332;2023-08-06T12:27:16;98208.69;;;25.35;51.85
64675;BME280;51090;51.512;11.332;2023-08-06T12:29:58;98221.69;;;25.55;50.38
64675;BME280;51090;51.512;11.332;2023-08-06T12:32:23;98215.16;;;25.25;50.42
64675;BME280;51090;51.512;11.332;2023-08-06T12:34:49;98219.97;;;25.06;51.16
64675;BME280;51090;51.512;11.332;2023-08-06T12:37:15;98201.41;;;24.99;52.04
64675;BME280;51090;51.512;11.332;2023-08-06T12:39:40;98222.16;;;25.49;52.53
64675;BME280;51090;51.512;11.332;2023-08-06T12:42:06;98221.56;;;26.00;52.22
64675;BME280;51090;51.512;11.332;2023-08-06T12:44:32;98234.13;;;26.71;51.19
64675;BME280;51090;51.512;11.332;2023-08-06T12:46:58;98249.78;;;27.26;50.32
64675;BME280;51090;51.512;11.332;2023-08-06T12:49:25;98236.31;;;27.39;48.56
64675;BME280;51090;51.512;11.332;2023-08-06T12:51:52;98236.75;;;27.49;48.96
64675;BME280;51090;51.512;11.332;2023-08-06T12:54:22;98234.00;;;27.58;46.32
64675;BME280;51090;51.512;11.332;2023-08-06T12:56:48;98224.28;;;27.40;46.35
64675;BME280;51090;51.512;11.332;2023-08-06T12:59:15;98212.84;;;27.08;46.95